sensor_id;sensor_type;location;lat;lon;timestamp;P1;durP1;ratioP1;P2;durP2;ratioP2
60241;SDS011;46103;52.076;113.488;2024-02-26T00:01:13;26.10;;;12.30;;
60241;SDS011;46103;52.076;113.488;2024-02-26T00:04:17;13.23;;;9.75;;
60241;SDS011;46103;52.076;113.488;2024-02-26T00:07:21;24.40;;;13.23;;
60241;SDS011;46103;52.076;113.488;2024-02-26T00:10:25;24.70;;;13.93;;
60241;SDS011;46103;52.076;113.488;2024-02-26T00:13:29;22.73;;;13.18;;
60241;SDS011;46103;52.076;113.488;2024-02-26T00:16:32;16.40;;;7.00;;
60241;SDS011;46103;52.076;113.488;2024-02-26T00:19:36;17.48;;;12.32;;
60241;SDS011;46103;52.076;113.488;2024-02-26T00:22:40;20.10;;;10.07;;
60241;SDS011;46103;52.076;113.488;2024-02-26T00:25:44;22.17;;;9.90;;
60241;SDS011;46103;52.076;113.488;2024-02-26T00:28:50;26.52;;;14.50;;
60241;SDS011;46103;52.076;113.488;2024-02-26T00:33:21;39.20;;;16.77;;
60241;SDS011;46103;52.076;113.488;2024-02-26T00:36:31;32.35;;;17.35;;
60241;SDS011;46103;52.076;113.488;2024-02-26T02:26:03;63.58;;;28.42;;
60241;SDS011;46103;52.076;113.488;2024-02-26T02:30:11;44.60;;;18.25;;
60241;SDS011;46103;52.076;113.488;2024-02-26T03:01:55;48.60;;;22.30;;
60241;SDS011;46103;52.076;113.488;2024-02-26T03:05:13;43.00;;;17.60;;
60241;SDS011;46103;52.076;113.488;2024-02-26T05:32:56;7.10;;;3.38;;
60241;SDS011;46103;52.076;113.488;2024-02-26T05:36:10;9.40;;;3.38;;
60241;SDS011;46103;52.076;113.488;2024-02-26T05:39:24;14.32;;;4.53;;
60241;SDS011;46103;52.076;113.488;2024-02-26T05:42:41;7.07;;;2.55;;
60241;SDS011;46103;52.076;113.488;2024-02-26T05:45:46;13.88;;;4.18;;
60241;SDS011;46103;52.076;113.488;2024-02-26T05:48:52;9.20;;;4.78;;
60241;SDS011;46103;52.076;113.488;2024-02-26T05:51:57;12.88;;;5.25;;
60241;SDS011;46103;52.076;113.488;2024-02-26T05:55:01;9.93;;;3.45;;
60241;SDS011;46103;52.076;113.488;2024-02-26T05:58:13;10.80;;;4.25;;
60241;SDS011;46103;52.076;113.488;2024-02-26T06:10:30;7.95;;;2.28;;
60241;SDS011;46103;52.076;113.488;2024-02-26T06:13:34;6.40;;;2.45;;
60241;SDS011;46103;52.076;113.488;2024-02-26T06:16:42;3.30;;;1.27;;
60241;SDS011;46103;52.076;113.488;2024-02-26T06:19:52;4.07;;;1.60;;
60241;SDS011;46103;52.076;113.488;2024-02-26T06:22:55;5.57;;;2.08;;
60241;SDS011;46103;52.076;113.488;2024-02-26T06:25:58;8.10;;;2.63;;
60241;SDS011;46103;52.076;113.488;2024-02-26T06:29:02;4.22;;;1.52;;
60241;SDS011;46103;52.076;113.488;2024-02-26T06:32:11;3.42;;;1.38;;
60241;SDS011;46103;52.076;113.488;2024-02-26T06:35:23;5.40;;;1.50;;
60241;SDS011;46103;52.076;113.488;2024-02-26T06:38:26;4.25;;;1.60;;
60241;SDS011;46103;52.076;113.488;2024-02-26T06:41:33;6.70;;;1.60;;
60241;SDS011;46103;52.076;113.488;2024-02-26T06:44:39;4.43;;;1.75;;
60241;SDS011;46103;52.076;113.488;2024-02-26T06:48:27;2.97;;;1.10;;
60241;SDS011;46103;52.076;113.488;2024-02-26T06:51:30;2.63;;;0.70;;
60241;SDS011;46103;52.076;113.488;2024-02-26T06:54:34;4.70;;;1.35;;
60241;SDS011;46103;52.076;113.488;2024-02-26T06:57:38;5.00;;;1.50;;
60241;SDS011;46103;52.076;113.488;2024-02-26T07:00:41;3.88;;;1.35;;
60241;SDS011;46103;52.076;113.488;2024-02-26T07:03:45;4.97;;;1.40;;
60241;SDS011;46103;52.076;113.488;2024-02-26T07:06:49;4.10;;;1.13;;
60241;SDS011;46103;52.076;113.488;2024-02-26T07:09:54;4.82;;;0.90;;
60241;SDS011;46103;52.076;113.488;2024-02-26T07:12:59;4.32;;;1.15;;
60241;SDS011;46103;52.076;113.488;2024-02-26T07:16:03;3.70;;;1.10;;
60241;SDS011;46103;52.076;113.488;2024-02-26T07:19:08;4.15;;;1.20;;
60241;SDS011;46103;52.076;113.488;2024-02-26T07:22:11;3.10;;;0.82;;
60241;SDS011;46103;52.076;113.488;2024-02-26T07:25:15;5.50;;;0.98;;
60241;SDS011;46103;52.076;113.488;2024-02-26T07:28:18;5.00;;;1.15;;
60241;SDS011;46103;52.076;113.488;2024-02-26T07:31:23;3.35;;;1.08;;
60241;SDS011;46103;52.076;113.488;2024-02-26T07:34:27;3.33;;;0.70;;
60241;SDS011;46103;52.076;113.488;2024-02-26T07:37:32;5.47;;;1.50;;
60241;SDS011;46103;52.076;113.488;2024-02-26T07:40:36;3.45;;;1.08;;
60241;SDS011;46103;52.076;113.488;2024-02-26T07:43:51;2.95;;;0.90;;
60241;SDS011;46103;52.076;113.488;2024-02-26T07:46:55;5.97;;;1.17;;
60241;SDS011;46103;52.076;113.488;2024-02-26T07:49:59;2.70;;;0.82;;
60241;SDS011;46103;52.076;113.488;2024-02-26T07:53:03;3.25;;;1.00;;
60241;SDS011;46103;52.076;113.488;2024-02-26T07:56:08;2.60;;;0.63;;
60241;SDS011;46103;52.076;113.488;2024-02-26T07:59:12;4.63;;;1.38;;
60241;SDS011;46103;52.076;113.488;2024-02-26T08:02:17;2.95;;;0.73;;
60241;SDS011;46103;52.076;113.488;2024-02-26T08:05:21;6.55;;;1.30;;
60241;SDS011;46103;52.076;113.488;2024-02-26T08:08:25;3.42;;;1.17;;
60241;SDS011;46103;52.076;113.488;2024-02-26T08:11:28;2.35;;;0.90;;
60241;SDS011;46103;52.076;113.488;2024-02-26T08:14:32;10.82;;;3.35;;
60241;SDS011;46103;52.076;113.488;2024-02-26T08:26:09;3.28;;;1.02;;
60241;SDS011;46103;52.076;113.488;2024-02-26T08:29:13;15.20;;;4.38;;
60241;SDS011;46103;52.076;113.488;2024-02-26T08:32:17;10.63;;;3.60;;
60241;SDS011;46103;52.076;113.488;2024-02-26T08:35:21;8.30;;;2.78;;
60241;SDS011;46103;52.076;113.488;2024-02-26T08:38:25;5.47;;;1.92;;
60241;SDS011;46103;52.076;113.488;2024-02-26T08:41:28;5.22;;;2.13;;
60241;SDS011;46103;52.076;113.488;2024-02-26T08:44:32;6.88;;;2.15;;
60241;SDS011;46103;52.076;113.488;2024-02-26T08:47:36;7.93;;;1.75;;
60241;SDS011;46103;52.076;113.488;2024-02-26T08:50:40;6.45;;;2.45;;
60241;SDS011;46103;52.076;113.488;2024-02-26T08:53:44;5.25;;;2.30;;
60241;SDS011;46103;52.076;113.488;2024-02-26T08:56:47;6.03;;;1.90;;
60241;SDS011;46103;52.076;113.488;2024-02-26T08:59:51;5.80;;;2.00;;
60241;SDS011;46103;52.076;113.488;2024-02-26T09:02:54;9.48;;;3.70;;
60241;SDS011;46103;52.076;113.488;2024-02-26T09:09:01;13.00;;;4.53;;
60241;SDS011;46103;52.076;113.488;2024-02-26T09:12:07;7.05;;;2.28;;
60241;SDS011;46103;52.076;113.488;2024-02-26T09:15:11;7.10;;;2.00;;
60241;SDS011;46103;52.076;113.488;2024-02-26T09:18:15;6.05;;;1.85;;
60241;SDS011;46103;52.076;113.488;2024-02-26T09:24:25;8.95;;;3.33;;
60241;SDS011;46103;52.076;113.488;2024-02-26T09:27:29;6.57;;;2.78;;
60241;SDS011;46103;52.076;113.488;2024-02-26T09:30:33;6.90;;;2.05;;
60241;SDS011;46103;52.076;113.488;2024-02-26T09:33:37;9.75;;;4.15;;
60241;SDS011;46103;52.076;113.488;2024-02-26T09:53:15;8.57;;;3.17;;
60241;SDS011;46103;52.076;113.488;2024-02-26T09:56:27;6.20;;;2.83;;
60241;SDS011;46103;52.076;113.488;2024-02-26T10:23:12;8.63;;;3.67;;
60241;SDS011;46103;52.076;113.488;2024-02-26T10:26:18;14.68;;;4.90;;
60241;SDS011;46103;52.076;113.488;2024-02-26T10:36:44;15.27;;;4.72;;
60241;SDS011;46103;52.076;113.488;2024-02-26T10:40:24;12.15;;;4.25;;
60241;SDS011;46103;52.076;113.488;2024-02-26T10:43:27;15.90;;;4.68;;
60241;SDS011;46103;52.076;113.488;2024-02-26T10:46:30;16.33;;;6.43;;
60241;SDS011;46103;52.076;113.488;2024-02-26T10:49:35;14.63;;;6.00;;
60241;SDS011;46103;52.076;113.488;2024-02-26T10:52:41;19.38;;;6.38;;
60241;SDS011;46103;52.076;113.488;2024-02-26T10:55:58;15.10;;;5.82;;
60241;SDS011;46103;52.076;113.488;2024-02-26T10:59:06;17.67;;;6.70;;
60241;SDS011;46103;52.076;113.488;2024-02-26T11:02:20;19.85;;;9.13;;
60241;SDS011;46103;52.076;113.488;2024-02-26T11:05:24;24.38;;;8.98;;
60241;SDS011;46103;52.076;113.488;2024-02-26T11:08:37;25.25;;;10.32;;
60241;SDS011;46103;52.076;113.488;2024-02-26T11:11:42;20.98;;;6.90;;
60241;SDS011;46103;52.076;113.488;2024-02-26T11:14:56;20.83;;;8.70;;
60241;SDS011;46103;52.076;113.488;2024-02-26T11:18:07;19.48;;;8.07;;
60241;SDS011;46103;52.076;113.488;2024-02-26T11:21:37;15.05;;;7.18;;
60241;SDS011;46103;52.076;113.488;2024-02-26T11:24:49;21.02;;;6.45;;
60241;SDS011;46103;52.076;113.488;2024-02-26T11:28:02;21.23;;;7.13;;
60241;SDS011;46103;52.076;113.488;2024-02-26T11:31:14;17.45;;;7.05;;
60241;SDS011;46103;52.076;113.488;2024-02-26T11:34:25;14.88;;;7.07;;
60241;SDS011;46103;52.076;113.488;2024-02-26T11:37:30;13.27;;;5.90;;
60241;SDS011;46103;52.076;113.488;2024-02-26T11:40:40;13.68;;;5.53;;
60241;SDS011;46103;52.076;113.488;2024-02-26T11:43:52;17.15;;;5.03;;
60241;SDS011;46103;52.076;113.488;2024-02-26T11:47:14;14.45;;;3.40;;
60241;SDS011;46103;52.076;113.488;2024-02-26T11:50:35;13.48;;;4.78;;
60241;SDS011;46103;52.076;113.488;2024-02-26T11:53:47;20.20;;;6.28;;
60241;SDS011;46103;52.076;113.488;2024-02-26T11:56:51;17.10;;;5.43;;
60241;SDS011;46103;52.076;113.488;2024-02-26T11:59:56;12.73;;;3.90;;
60241;SDS011;46103;52.076;113.488;2024-02-26T12:03:10;14.05;;;4.78;;
60241;SDS011;46103;52.076;113.488;2024-02-26T12:13:58;10.93;;;4.18;;
60241;SDS011;46103;52.076;113.488;2024-02-26T12:44:31;5.25;;;1.58;;
60241;SDS011;46103;52.076;113.488;2024-02-26T12:50:51;5.40;;;1.42;;
60241;SDS011;46103;52.076;113.488;2024-02-26T12:53:55;5.50;;;1.90;;
60241;SDS011;46103;52.076;113.488;2024-02-26T12:57:03;8.88;;;2.30;;
60241;SDS011;46103;52.076;113.488;2024-02-26T13:00:11;4.80;;;1.58;;
60241;SDS011;46103;52.076;113.488;2024-02-26T13:03:19;2.67;;;1.00;;
60241;SDS011;46103;52.076;113.488;2024-02-26T13:06:24;2.65;;;1.10;;
60241;SDS011;46103;52.076;113.488;2024-02-26T13:09:31;7.00;;;2.53;;
60241;SDS011;46103;52.076;113.488;2024-02-26T13:12:42;10.27;;;1.90;;
60241;SDS011;46103;52.076;113.488;2024-02-26T13:15:47;14.88;;;7.25;;
60241;SDS011;46103;52.076;113.488;2024-02-26T13:18:51;25.65;;;7.93;;
60241;SDS011;46103;52.076;113.488;2024-02-26T13:21:54;34.33;;;10.63;;
60241;SDS011;46103;52.076;113.488;2024-02-26T13:24:58;32.28;;;12.60;;
60241;SDS011;46103;52.076;113.488;2024-02-26T13:28:06;11.32;;;4.40;;
60241;SDS011;46103;52.076;113.488;2024-02-26T13:31:11;18.38;;;6.25;;
60241;SDS011;46103;52.076;113.488;2024-02-26T13:34:25;36.10;;;11.55;;
60241;SDS011;46103;52.076;113.488;2024-02-26T13:37:31;21.45;;;8.10;;
60241;SDS011;46103;52.076;113.488;2024-02-26T13:40:36;19.38;;;7.25;;
60241;SDS011;46103;52.076;113.488;2024-02-26T13:43:44;29.77;;;11.05;;
60241;SDS011;46103;52.076;113.488;2024-02-26T13:46:49;33.72;;;13.85;;
60241;SDS011;46103;52.076;113.488;2024-02-26T13:49:53;40.95;;;18.48;;
60241;SDS011;46103;52.076;113.488;2024-02-26T14:01:15;33.67;;;14.30;;
60241;SDS011;46103;52.076;113.488;2024-02-26T14:04:20;52.40;;;20.98;;
60241;SDS011;46103;52.076;113.488;2024-02-26T14:07:24;43.13;;;14.93;;
60241;SDS011;46103;52.076;113.488;2024-02-26T14:10:28;15.32;;;8.05;;
60241;SDS011;46103;52.076;113.488;2024-02-26T14:16:39;37.00;;;16.02;;
60241;SDS011;46103;52.076;113.488;2024-02-26T14:19:42;42.13;;;16.45;;
60241;SDS011;46103;52.076;113.488;2024-02-26T14:22:48;45.17;;;19.25;;
60241;SDS011;46103;52.076;113.488;2024-02-26T14:25:57;45.72;;;17.10;;
60241;SDS011;46103;52.076;113.488;2024-02-26T14:29:00;55.25;;;18.95;;
60241;SDS011;46103;52.076;113.488;2024-02-26T14:32:04;27.85;;;12.15;;
60241;SDS011;46103;52.076;113.488;2024-02-26T14:35:09;46.47;;;18.40;;
60241;SDS011;46103;52.076;113.488;2024-02-26T14:38:18;46.47;;;20.17;;
60241;SDS011;46103;52.076;113.488;2024-02-26T14:41:22;46.17;;;16.05;;
60241;SDS011;46103;52.076;113.488;2024-02-26T14:44:26;39.60;;;16.45;;
60241;SDS011;46103;52.076;113.488;2024-02-26T14:47:30;29.27;;;12.27;;
60241;SDS011;46103;52.076;113.488;2024-02-26T14:50:33;23.17;;;9.68;;
60241;SDS011;46103;52.076;113.488;2024-02-26T14:53:37;21.13;;;8.38;;
60241;SDS011;46103;52.076;113.488;2024-02-26T14:59:44;21.67;;;8.40;;
60241;SDS011;46103;52.076;113.488;2024-02-26T15:05:51;14.68;;;6.13;;
60241;SDS011;46103;52.076;113.488;2024-02-26T15:08:56;21.08;;;8.52;;
60241;SDS011;46103;52.076;113.488;2024-02-26T15:11:59;12.93;;;6.43;;
60241;SDS011;46103;52.076;113.488;2024-02-26T15:15:04;22.75;;;10.23;;
60241;SDS011;46103;52.076;113.488;2024-02-26T15:18:08;32.08;;;10.48;;
60241;SDS011;46103;52.076;113.488;2024-02-26T15:21:14;13.27;;;5.78;;
60241;SDS011;46103;52.076;113.488;2024-02-26T15:24:19;24.15;;;9.82;;
60241;SDS011;46103;52.076;113.488;2024-02-26T15:27:22;12.90;;;6.93;;
60241;SDS011;46103;52.076;113.488;2024-02-26T15:30:26;27.33;;;8.68;;
60241;SDS011;46103;52.076;113.488;2024-02-26T15:33:33;14.75;;;6.05;;
60241;SDS011;46103;52.076;113.488;2024-02-26T15:36:37;17.27;;;7.45;;
60241;SDS011;46103;52.076;113.488;2024-02-26T15:39:40;27.55;;;10.30;;
60241;SDS011;46103;52.076;113.488;2024-02-26T15:42:48;15.30;;;5.07;;
60241;SDS011;46103;52.076;113.488;2024-02-26T15:45:51;11.88;;;4.95;;
60241;SDS011;46103;52.076;113.488;2024-02-26T15:48:55;16.55;;;6.82;;
60241;SDS011;46103;52.076;113.488;2024-02-26T15:52:00;14.98;;;7.13;;
60241;SDS011;46103;52.076;113.488;2024-02-26T15:55:05;16.95;;;8.15;;
60241;SDS011;46103;52.076;113.488;2024-02-26T15:58:09;7.28;;;4.00;;
60241;SDS011;46103;52.076;113.488;2024-02-26T16:01:13;8.88;;;3.90;;
60241;SDS011;46103;52.076;113.488;2024-02-26T16:04:26;13.95;;;4.70;;
60241;SDS011;46103;52.076;113.488;2024-02-26T16:07:32;16.77;;;5.43;;
60241;SDS011;46103;52.076;113.488;2024-02-26T16:10:40;15.20;;;3.30;;
60241;SDS011;46103;52.076;113.488;2024-02-26T16:13:44;7.25;;;3.13;;
60241;SDS011;46103;52.076;113.488;2024-02-26T16:16:52;15.25;;;5.68;;
60241;SDS011;46103;52.076;113.488;2024-02-26T16:20:00;12.43;;;5.00;;
60241;SDS011;46103;52.076;113.488;2024-02-26T16:23:06;15.68;;;8.90;;
60241;SDS011;46103;52.076;113.488;2024-02-26T16:26:12;28.60;;;10.75;;
60241;SDS011;46103;52.076;113.488;2024-02-26T16:29:16;17.00;;;7.30;;
60241;SDS011;46103;52.076;113.488;2024-02-26T16:32:19;19.02;;;7.35;;
60241;SDS011;46103;52.076;113.488;2024-02-26T16:38:27;11.43;;;4.78;;
60241;SDS011;46103;52.076;113.488;2024-02-26T16:44:38;10.43;;;4.85;;
60241;SDS011;46103;52.076;113.488;2024-02-26T16:47:42;11.07;;;4.10;;
60241;SDS011;46103;52.076;113.488;2024-02-26T16:50:47;12.55;;;2.83;;
60241;SDS011;46103;52.076;113.488;2024-02-26T16:53:52;10.60;;;4.82;;
60241;SDS011;46103;52.076;113.488;2024-02-26T16:56:56;5.90;;;3.67;;
60241;SDS011;46103;52.076;113.488;2024-02-26T17:00:00;19.00;;;7.10;;
60241;SDS011;46103;52.076;113.488;2024-02-26T17:03:04;24.08;;;9.82;;
60241;SDS011;46103;52.076;113.488;2024-02-26T17:09:13;29.83;;;14.45;;
60241;SDS011;46103;52.076;113.488;2024-02-26T17:15:20;25.30;;;11.70;;
60241;SDS011;46103;52.076;113.488;2024-02-26T17:18:24;19.75;;;10.65;;
60241;SDS011;46103;52.076;113.488;2024-02-26T17:24:32;14.63;;;8.45;;
60241;SDS011;46103;52.076;113.488;2024-02-26T17:27:36;33.67;;;9.00;;
60241;SDS011;46103;52.076;113.488;2024-02-26T17:30:40;28.58;;;8.05;;
60241;SDS011;46103;52.076;113.488;2024-02-26T17:36:48;16.75;;;3.67;;
60241;SDS011;46103;52.076;113.488;2024-02-26T17:39:53;13.02;;;6.05;;
60241;SDS011;46103;52.076;113.488;2024-02-26T17:42:58;18.92;;;5.38;;
60241;SDS011;46103;52.076;113.488;2024-02-26T17:46:02;11.75;;;5.13;;
60241;SDS011;46103;52.076;113.488;2024-02-26T17:49:06;10.00;;;4.13;;
60241;SDS011;46103;52.076;113.488;2024-02-26T17:52:11;15.50;;;5.55;;
60241;SDS011;46103;52.076;113.488;2024-02-26T17:55:15;16.50;;;7.10;;
60241;SDS011;46103;52.076;113.488;2024-02-26T17:58:20;9.07;;;4.38;;
60241;SDS011;46103;52.076;113.488;2024-02-26T18:01:24;7.32;;;3.33;;
60241;SDS011;46103;52.076;113.488;2024-02-26T18:04:28;6.03;;;2.60;;
60241;SDS011;46103;52.076;113.488;2024-02-26T18:07:33;7.72;;;3.90;;
60241;SDS011;46103;52.076;113.488;2024-02-26T18:10:37;12.90;;;5.18;;
60241;SDS011;46103;52.076;113.488;2024-02-26T18:13:41;7.07;;;2.90;;
60241;SDS011;46103;52.076;113.488;2024-02-26T18:16:48;13.48;;;3.78;;
60241;SDS011;46103;52.076;113.488;2024-02-26T18:19:51;3.90;;;2.13;;
60241;SDS011;46103;52.076;113.488;2024-02-26T18:22:55;6.10;;;4.35;;
60241;SDS011;46103;52.076;113.488;2024-02-26T18:25:59;10.35;;;3.60;;
60241;SDS011;46103;52.076;113.488;2024-02-26T18:29:03;9.07;;;2.63;;
60241;SDS011;46103;52.076;113.488;2024-02-26T18:32:08;16.35;;;5.45;;
60241;SDS011;46103;52.076;113.488;2024-02-26T18:35:12;6.35;;;2.97;;
60241;SDS011;46103;52.076;113.488;2024-02-26T18:41:20;19.33;;;6.10;;
60241;SDS011;46103;52.076;113.488;2024-02-26T18:44:25;3.38;;;1.98;;
60241;SDS011;46103;52.076;113.488;2024-02-26T18:47:29;12.23;;;6.70;;
60241;SDS011;46103;52.076;113.488;2024-02-26T18:50:33;5.80;;;3.00;;
60241;SDS011;46103;52.076;113.488;2024-02-26T18:53:38;6.28;;;3.17;;
60241;SDS011;46103;52.076;113.488;2024-02-26T18:56:43;8.55;;;3.33;;
60241;SDS011;46103;52.076;113.488;2024-02-26T18:59:47;20.42;;;9.32;;
60241;SDS011;46103;52.076;113.488;2024-02-26T19:02:52;56.92;;;24.42;;
60241;SDS011;46103;52.076;113.488;2024-02-26T19:05:56;57.83;;;22.90;;
60241;SDS011;46103;52.076;113.488;2024-02-26T19:09:01;56.70;;;22.13;;
60241;SDS011;46103;52.076;113.488;2024-02-26T19:12:08;47.50;;;17.45;;
60241;SDS011;46103;52.076;113.488;2024-02-26T19:15:11;30.90;;;10.60;;
60241;SDS011;46103;52.076;113.488;2024-02-26T19:18:20;13.40;;;8.23;;
60241;SDS011;46103;52.076;113.488;2024-02-26T19:21:24;18.52;;;9.30;;
60241;SDS011;46103;52.076;113.488;2024-02-26T19:24:27;20.23;;;10.60;;
60241;SDS011;46103;52.076;113.488;2024-02-26T19:27:31;29.92;;;11.80;;
60241;SDS011;46103;52.076;113.488;2024-02-26T19:30:35;15.88;;;7.38;;
60241;SDS011;46103;52.076;113.488;2024-02-26T19:33:39;13.68;;;6.75;;
60241;SDS011;46103;52.076;113.488;2024-02-26T19:36:42;23.00;;;12.40;;
60241;SDS011;46103;52.076;113.488;2024-02-26T19:39:46;34.80;;;12.98;;
60241;SDS011;46103;52.076;113.488;2024-02-26T19:42:50;24.45;;;15.43;;
60241;SDS011;46103;52.076;113.488;2024-02-26T19:45:54;25.45;;;10.90;;
60241;SDS011;46103;52.076;113.488;2024-02-26T19:48:57;32.22;;;12.60;;
60241;SDS011;46103;52.076;113.488;2024-02-26T19:52:03;14.93;;;6.18;;
60241;SDS011;46103;52.076;113.488;2024-02-26T19:55:07;25.75;;;7.00;;
60241;SDS011;46103;52.076;113.488;2024-02-26T19:58:10;37.30;;;13.98;;
60241;SDS011;46103;52.076;113.488;2024-02-26T20:01:16;43.50;;;19.25;;
60241;SDS011;46103;52.076;113.488;2024-02-26T20:04:19;29.13;;;16.17;;
60241;SDS011;46103;52.076;113.488;2024-02-26T20:07:23;26.83;;;11.80;;
60241;SDS011;46103;52.076;113.488;2024-02-26T20:10:27;18.95;;;11.18;;
60241;SDS011;46103;52.076;113.488;2024-02-26T20:13:31;13.07;;;8.23;;
60241;SDS011;46103;52.076;113.488;2024-02-26T20:16:35;9.27;;;5.18;;
60241;SDS011;46103;52.076;113.488;2024-02-26T20:19:39;9.55;;;3.60;;
60241;SDS011;46103;52.076;113.488;2024-02-26T20:22:45;3.90;;;3.17;;
60241;SDS011;46103;52.076;113.488;2024-02-26T20:25:49;9.40;;;3.50;;
60241;SDS011;46103;52.076;113.488;2024-02-26T20:28:53;5.65;;;4.75;;
60241;SDS011;46103;52.076;113.488;2024-02-26T20:31:57;5.38;;;2.30;;
60241;SDS011;46103;52.076;113.488;2024-02-26T20:35:01;5.22;;;2.85;;
60241;SDS011;46103;52.076;113.488;2024-02-26T20:38:06;2.10;;;0.95;;
60241;SDS011;46103;52.076;113.488;2024-02-26T20:41:11;10.70;;;3.33;;
60241;SDS011;46103;52.076;113.488;2024-02-26T20:44:15;14.32;;;5.22;;
60241;SDS011;46103;52.076;113.488;2024-02-26T20:47:18;0.38;;;0.22;;
60241;SDS011;46103;52.076;113.488;2024-02-26T20:53:25;21.70;;;8.70;;
60241;SDS011;46103;52.076;113.488;2024-02-26T20:56:29;9.95;;;5.68;;
60241;SDS011;46103;52.076;113.488;2024-02-26T20:59:33;7.32;;;4.75;;
60241;SDS011;46103;52.076;113.488;2024-02-26T21:02:37;12.55;;;2.90;;
60241;SDS011;46103;52.076;113.488;2024-02-26T21:05:42;16.25;;;4.35;;
60241;SDS011;46103;52.076;113.488;2024-02-26T21:08:46;13.35;;;7.05;;
60241;SDS011;46103;52.076;113.488;2024-02-26T21:14:56;17.17;;;11.80;;
60241;SDS011;46103;52.076;113.488;2024-02-26T21:18:00;8.20;;;5.40;;
60241;SDS011;46103;52.076;113.488;2024-02-26T21:21:05;14.85;;;8.38;;
60241;SDS011;46103;52.076;113.488;2024-02-26T21:24:08;7.05;;;2.63;;
60241;SDS011;46103;52.076;113.488;2024-02-26T21:27:12;41.05;;;16.17;;
60241;SDS011;46103;52.076;113.488;2024-02-26T21:30:16;28.67;;;11.15;;
60241;SDS011;46103;52.076;113.488;2024-02-26T21:33:20;28.10;;;9.48;;
60241;SDS011;46103;52.076;113.488;2024-02-26T21:36:24;12.43;;;7.45;;
60241;SDS011;46103;52.076;113.488;2024-02-26T21:39:28;14.90;;;5.90;;
60241;SDS011;46103;52.076;113.488;2024-02-26T21:42:32;23.17;;;11.10;;
60241;SDS011;46103;52.076;113.488;2024-02-26T21:45:36;29.48;;;13.48;;
60241;SDS011;46103;52.076;113.488;2024-02-26T21:48:40;16.25;;;10.45;;
60241;SDS011;46103;52.076;113.488;2024-02-26T21:51:44;26.00;;;7.85;;
60241;SDS011;46103;52.076;113.488;2024-02-26T21:54:50;4.85;;;3.22;;
60241;SDS011;46103;52.076;113.488;2024-02-26T21:57:54;13.93;;;9.27;;
60241;SDS011;46103;52.076;113.488;2024-02-26T22:00:57;24.88;;;9.52;;
60241;SDS011;46103;52.076;113.488;2024-02-26T22:04:02;5.47;;;4.47;;
60241;SDS011;46103;52.076;113.488;2024-02-26T22:07:06;15.27;;;6.97;;
60241;SDS011;46103;52.076;113.488;2024-02-26T22:10:10;14.43;;;4.22;;
60241;SDS011;46103;52.076;113.488;2024-02-26T22:13:13;21.38;;;7.03;;
60241;SDS011;46103;52.076;113.488;2024-02-26T22:16:17;11.98;;;7.03;;
60241;SDS011;46103;52.076;113.488;2024-02-26T22:19:20;11.43;;;5.15;;
60241;SDS011;46103;52.076;113.488;2024-02-26T22:22:25;9.45;;;6.50;;
60241;SDS011;46103;52.076;113.488;2024-02-26T22:25:29;9.07;;;3.40;;
60241;SDS011;46103;52.076;113.488;2024-02-26T22:28:33;3.03;;;1.80;;
60241;SDS011;46103;52.076;113.488;2024-02-26T22:31:36;3.90;;;3.50;;
60241;SDS011;46103;52.076;113.488;2024-02-26T22:34:40;7.15;;;3.97;;
60241;SDS011;46103;52.076;113.488;2024-02-26T22:37:44;11.40;;;4.10;;
60241;SDS011;46103;52.076;113.488;2024-02-26T22:40:48;7.88;;;4.60;;
60241;SDS011;46103;52.076;113.488;2024-02-26T22:43:52;4.47;;;1.48;;
60241;SDS011;46103;52.076;113.488;2024-02-26T22:46:55;8.68;;;7.25;;
60241;SDS011;46103;52.076;113.488;2024-02-26T22:53:17;21.17;;;9.50;;
60241;SDS011;46103;52.076;113.488;2024-02-26T22:56:20;11.88;;;9.05;;
60241;SDS011;46103;52.076;113.488;2024-02-26T23:02:28;3.55;;;2.55;;
60241;SDS011;46103;52.076;113.488;2024-02-26T23:05:32;12.40;;;6.78;;
60241;SDS011;46103;52.076;113.488;2024-02-26T23:08:38;8.27;;;2.30;;
60241;SDS011;46103;52.076;113.488;2024-02-26T23:11:46;9.95;;;6.55;;
60241;SDS011;46103;52.076;113.488;2024-02-26T23:25:38;11.32;;;5.13;;
60241;SDS011;46103;52.076;113.488;2024-02-26T23:28:41;8.77;;;2.67;;
60241;SDS011;46103;52.076;113.488;2024-02-26T23:31:44;8.55;;;3.00;;
60241;SDS011;46103;52.076;113.488;2024-02-26T23:34:48;15.80;;;5.20;;
60241;SDS011;46103;52.076;113.488;2024-02-26T23:37:52;46.50;;;19.45;;
60241;SDS011;46103;52.076;113.488;2024-02-26T23:41:05;36.50;;;19.88;;
60241;SDS011;46103;52.076;113.488;2024-02-26T23:44:48;36.95;;;14.40;;
